createdAt,value
2022-11-18T00:01:56.371Z,99231.37
2022-11-18T00:05:03.967Z,99233.51
2022-11-18T00:08:09.595Z,99242.82
2022-11-18T00:11:23.225Z,99252.41
2022-11-18T00:14:35.803Z,99254.69
2022-11-18T00:17:42.831Z,99251.41
2022-11-18T00:20:50.466Z,99264.37
2022-11-18T00:23:58.225Z,99265.30
2022-11-18T00:27:04.547Z,99265.30
2022-11-18T00:30:10.014Z,99263.58
2022-11-18T00:33:17.692Z,99250.09
2022-11-18T00:36:25.594Z,99252.95
2022-11-18T00:39:33.601Z,99250.98
2022-11-18T00:42:58.556Z,99246.23
2022-11-18T00:46:05.392Z,99233.41
2022-11-18T00:49:12.727Z,99225.62
2022-11-18T00:52:18.848Z,99251.86
2022-11-18T00:55:25.579Z,99243.55
2022-11-18T00:58:30.613Z,99245.17
2022-11-18T01:01:36.936Z,99254.37
2022-11-18T01:04:44.056Z,99261.03
2022-11-18T01:07:49.071Z,99262.37
2022-11-18T01:10:56.557Z,99261.61
2022-11-18T01:14:06.543Z,99264.89
2022-11-18T01:17:12.036Z,99259.23
2022-11-18T01:20:19.296Z,99267.30
2022-11-18T01:23:25.404Z,99269.41
2022-11-18T01:26:31.793Z,99279.58
2022-11-18T01:29:32.434Z,99283.40
2022-11-18T01:32:38.164Z,99279.95
2022-11-18T01:35:45.092Z,99281.02
2022-11-18T01:38:51.886Z,99280.41
2022-11-18T01:41:57.928Z,99283.23
2022-11-18T01:45:31.828Z,99297.64
2022-11-18T01:48:49.457Z,99320.73
2022-11-18T01:52:03.976Z,99315.89
2022-11-18T01:55:07.844Z,99311.58
2022-11-18T01:58:23.593Z,99327.37
2022-11-18T02:01:29.299Z,99344.98
2022-11-18T02:04:35.341Z,99338.41
2022-11-18T02:07:42.042Z,99345.50
2022-11-18T02:10:48.726Z,99342.25
2022-11-18T02:13:55.521Z,99359.50
2022-11-18T02:17:23.791Z,99364.01
2022-11-18T02:20:47.452Z,99360.97
2022-11-18T02:24:21.443Z,99364.66
2022-11-18T02:27:48.705Z,99368.45
2022-11-18T02:31:00.505Z,99388.48
2022-11-18T02:34:16.442Z,99388.21
2022-11-18T02:37:42.269Z,99399.22
2022-11-18T02:40:51.638Z,99398.22
2022-11-18T02:44:06.267Z,99407.23
2022-11-18T02:47:15.725Z,99411.23
2022-11-18T02:50:27.434Z,99415.14
2022-11-18T02:53:35.240Z,99419.22
2022-11-18T02:56:40.805Z,99418.47
2022-11-18T02:59:48.244Z,99427.88
2022-11-18T03:03:04.039Z,99427.56
2022-11-18T03:06:46.494Z,99433.91
2022-11-18T03:09:56.153Z,99436.23
2022-11-18T03:13:20.144Z,99442.84
2022-11-18T03:16:31.632Z,99435.98
2022-11-18T03:19:54.728Z,99443.22
2022-11-18T03:23:24.503Z,99438.53
2022-11-18T03:26:38.497Z,99435.23
2022-11-18T03:29:50.551Z,99441.61
2022-11-18T03:32:58.512Z,99439.40
2022-11-18T03:36:04.398Z,99443.57
2022-11-18T03:39:14.741Z,99440.02
2022-11-18T03:42:40.810Z,99443.22
2022-11-18T03:46:02.725Z,99459.60
2022-11-18T03:49:11.281Z,99470.28
2022-11-18T03:52:31.172Z,99479.70
2022-11-18T03:55:41.456Z,99484.86
2022-11-18T03:58:55.092Z,99490.98
2022-11-18T04:02:18.448Z,99490.25
2022-11-18T04:05:25.945Z,99495.17
2022-11-18T04:08:38.274Z,99498.39
2022-11-18T04:12:08.588Z,99498.30
2022-11-18T04:15:15.732Z,99508.33
2022-11-18T04:18:22.292Z,99516.91
2022-11-18T04:21:28.953Z,99519.13
2022-11-18T04:24:35.429Z,99532.19
2022-11-18T04:27:40.558Z,99540.99
2022-11-18T04:30:46.095Z,99540.73
2022-11-18T04:33:51.459Z,99544.76
2022-11-18T04:36:57.664Z,99539.85
2022-11-18T04:40:04.410Z,99541.77
2022-11-18T04:43:10.958Z,99558.37
2022-11-18T04:46:16.458Z,99562.40
2022-11-18T04:49:25.303Z,99572.50
2022-11-18T04:52:30.733Z,99564.98
2022-11-18T04:55:36.448Z,99563.11
2022-11-18T04:58:43.745Z,99571.17
2022-11-18T05:01:49.823Z,99579.09
2022-11-18T05:04:55.002Z,99582.33
2022-11-18T05:08:01.283Z,99585.09
2022-11-18T05:11:26.684Z,99590.42
2022-11-18T05:14:34.827Z,99591.47
2022-11-18T05:17:41.438Z,99606.83
2022-11-18T05:20:50.512Z,99601.30
2022-11-18T05:23:56.258Z,99602.52
2022-11-18T05:27:02.850Z,99607.53
2022-11-18T05:30:09.307Z,99613.48
2022-11-18T05:33:16.282Z,99619.25
2022-11-18T05:36:23.991Z,99626.05
2022-11-18T05:39:30.396Z,99633.59
2022-11-18T05:42:55.125Z,99640.52
2022-11-18T05:46:01.845Z,99633.48
2022-11-18T05:49:08.668Z,99646.06
2022-11-18T05:52:15.513Z,99652.80
2022-11-18T05:55:21.252Z,99649.70
2022-11-18T05:58:27.793Z,99660.07
2022-11-18T06:01:39.357Z,99660.88
2022-11-18T06:05:04.319Z,99667.58
2022-11-18T06:08:10.618Z,99672.77
2022-11-18T06:11:15.732Z,99678.27
2022-11-18T06:14:41.602Z,99689.78
2022-11-18T06:18:00.035Z,99686.43
2022-11-18T06:21:09.119Z,99686.26
2022-11-18T06:24:16.575Z,99693.90
2022-11-18T06:27:23.758Z,99709.98
2022-11-18T06:30:30.031Z,99704.06
2022-11-18T06:33:38.096Z,99696.00
2022-11-18T06:36:44.360Z,99708.55
2022-11-18T06:39:52.616Z,99713.80
2022-11-18T06:43:16.583Z,99725.26
2022-11-18T06:46:44.235Z,99730.20
2022-11-18T06:49:51.194Z,99734.92
2022-11-18T06:52:58.993Z,99734.02
2022-11-18T06:56:05.231Z,99741.42
2022-11-18T06:59:10.889Z,99745.57
2022-11-18T07:02:17.991Z,99738.97
2022-11-18T07:05:24.384Z,99753.39
2022-11-18T07:08:35.581Z,99747.72
2022-11-18T07:11:41.271Z,99755.36
2022-11-18T07:14:47.999Z,99754.52
2022-11-18T07:17:57.177Z,99749.77
2022-11-18T07:21:04.352Z,99744.23
2022-11-18T07:24:11.496Z,99756.69
2022-11-18T07:27:17.601Z,99753.56
2022-11-18T07:30:24.755Z,99756.80
2022-11-18T07:33:31.281Z,99755.95
2022-11-18T07:36:41.909Z,99761.44
2022-11-18T07:39:48.688Z,99762.08
2022-11-18T07:42:55.185Z,99755.05
2022-11-18T07:46:00.763Z,99765.91
2022-11-18T07:49:08.354Z,99778.59
2022-11-18T07:52:25.060Z,99783.62
2022-11-18T07:55:33.868Z,99800.84
2022-11-18T07:58:40.543Z,99806.73
2022-11-18T08:01:47.184Z,99811.70
2022-11-18T08:04:55.540Z,99809.00
2022-11-18T08:08:03.935Z,99822.38
2022-11-18T08:11:18.981Z,99816.58
2022-11-18T08:14:22.483Z,99827.15
2022-11-18T08:17:30.526Z,99831.30
2022-11-18T08:20:35.833Z,99831.16
2022-11-18T08:23:42.243Z,99832.70
2022-11-18T08:26:51.946Z,99836.19
2022-11-18T08:29:58.663Z,99835.52
2022-11-18T08:33:07.182Z,99839.81
2022-11-18T08:36:25.486Z,99846.95
2022-11-18T08:39:32.816Z,99851.05
2022-11-18T08:42:40.148Z,99860.35
2022-11-18T08:45:46.704Z,99868.84
2022-11-18T08:48:53.042Z,99875.83
2022-11-18T08:51:59.790Z,99875.97
2022-11-18T08:55:08.136Z,99883.94
2022-11-18T08:58:16.427Z,99888.34
2022-11-18T09:01:25.400Z,99893.61
2022-11-18T09:04:41.941Z,99891.05
2022-11-18T09:07:48.529Z,99911.58
2022-11-18T09:10:55.284Z,99905.66
2022-11-18T09:17:22.858Z,99905.55
2022-11-18T09:20:31.869Z,99914.96
2022-11-18T09:23:39.818Z,99919.03
2022-11-18T09:26:46.107Z,99925.64
2022-11-18T09:29:52.794Z,99940.59
2022-11-18T09:32:59.454Z,99939.17
2022-11-18T09:36:09.398Z,99943.28
2022-11-18T09:39:16.467Z,99945.77
2022-11-18T09:42:30.128Z,99948.75
2022-11-18T09:45:49.095Z,99954.85
2022-11-18T09:49:12.945Z,99963.13
2022-11-18T09:52:34.273Z,99977.31
2022-11-18T09:55:37.154Z,99972.41
2022-11-18T09:58:50.038Z,99980.69
2022-11-18T10:01:56.037Z,99992.50
2022-11-18T10:05:01.935Z,99992.95
2022-11-18T10:08:41.146Z,99992.48
2022-11-18T10:12:06.419Z,99998.61
2022-11-18T10:15:30.191Z,99999.44
2022-11-18T10:19:01.176Z,100002.36
2022-11-18T10:22:23.809Z,100009.18
2022-11-18T10:25:30.343Z,100021.09
2022-11-18T10:28:43.296Z,100013.70
2022-11-18T10:31:50.340Z,100015.83
2022-11-18T10:35:05.598Z,100021.97
2022-11-18T10:38:19.738Z,100023.25
2022-11-18T10:41:30.627Z,100018.80
2022-11-18T10:44:55.799Z,100016.85
2022-11-18T10:48:13.749Z,100027.90
2022-11-18T10:51:23.315Z,100029.94
2022-11-18T10:54:39.305Z,100034.08
2022-11-18T10:57:45.491Z,100035.16
2022-11-18T11:01:02.808Z,100036.87
2022-11-18T11:04:37.896Z,100041.95
2022-11-18T11:07:52.287Z,100041.05
2022-11-18T11:10:58.724Z,100024.22
2022-11-18T11:14:04.768Z,100023.63
2022-11-18T11:17:29.213Z,100024.30
2022-11-18T11:20:38.532Z,100032.06
2022-11-18T11:23:45.526Z,100045.70
2022-11-18T11:30:31.100Z,100052.48
2022-11-18T11:33:53.443Z,100060.31
2022-11-18T11:37:38.471Z,100059.09
2022-11-18T11:40:51.686Z,100062.58
2022-11-18T11:44:20.457Z,100060.07
2022-11-18T11:47:57.235Z,100061.56
2022-11-18T11:51:12.957Z,100054.78
2022-11-18T11:54:52.715Z,100059.78
2022-11-18T11:58:40.854Z,100066.83
2022-11-18T12:02:14.535Z,100067.26
2022-11-18T12:05:46.521Z,100082.41
2022-11-18T12:09:15.255Z,100090.59
2022-11-18T12:12:57.524Z,100088.47
2022-11-18T12:16:44.317Z,100090.11
2022-11-18T12:19:52.658Z,100089.09
2022-11-18T12:23:27.552Z,100096.09
2022-11-18T12:26:51.947Z,100101.72
2022-11-18T12:30:07.377Z,100098.66
2022-11-18T12:33:14.088Z,100097.84
2022-11-18T12:36:21.022Z,100112.48
2022-11-18T12:39:46.633Z,100112.38
2022-11-18T12:43:12.899Z,100120.89
2022-11-18T12:46:17.244Z,100111.47
2022-11-18T12:49:43.767Z,100102.80
2022-11-18T12:52:56.355Z,100099.08
2022-11-18T12:56:04.985Z,100101.00
2022-11-18T12:59:12.517Z,100108.66
2022-11-18T13:02:33.516Z,100130.62
2022-11-18T13:05:45.815Z,100137.67
2022-11-18T13:08:52.806Z,100142.59
2022-11-18T13:12:11.470Z,100143.59
2022-11-18T13:15:39.221Z,100137.11
2022-11-18T13:18:45.025Z,100141.47
2022-11-18T13:22:11.680Z,100148.78
2022-11-18T13:25:17.664Z,100142.95
2022-11-18T13:28:54.851Z,100167.61
2022-11-18T13:32:38.055Z,100161.63
2022-11-18T13:35:44.160Z,100174.11
2022-11-18T13:38:51.298Z,100172.95
2022-11-18T13:41:57.364Z,100171.42
2022-11-18T13:45:15.450Z,100171.42
2022-11-18T13:48:23.945Z,100180.88
2022-11-18T13:51:31.157Z,100177.47
2022-11-18T13:54:39.981Z,100181.05
2022-11-18T13:57:46.578Z,100205.98
2022-11-18T14:00:51.844Z,100220.48
2022-11-18T14:04:09.264Z,100231.42
2022-11-18T14:07:40.542Z,100221.88
2022-11-18T14:10:54.330Z,100214.04
2022-11-18T14:14:06.391Z,100208.77
2022-11-18T14:17:38.360Z,100210.12
2022-11-18T14:20:44.526Z,100214.52
2022-11-18T14:23:50.830Z,100206.67
2022-11-18T14:26:59.855Z,100220.41
2022-11-18T14:30:07.490Z,100216.70
2022-11-18T14:33:36.353Z,100224.23
2022-11-18T14:36:42.193Z,100234.16
2022-11-18T14:39:49.017Z,100230.41
2022-11-18T14:42:56.720Z,100239.47
2022-11-18T14:46:03.399Z,100236.67
2022-11-18T14:49:09.803Z,100239.02
2022-11-18T14:52:18.040Z,100248.46
2022-11-18T14:55:25.885Z,100256.42
2022-11-18T14:58:31.080Z,100245.91
2022-11-18T15:01:36.453Z,100237.20
2022-11-18T15:04:42.735Z,100239.51
2022-11-18T15:07:48.193Z,100244.20
2022-11-18T15:10:54.070Z,100235.71
2022-11-18T15:13:59.331Z,100229.97
2022-11-18T15:17:05.238Z,100220.39
2022-11-18T15:20:12.895Z,100228.00
2022-11-18T15:23:19.608Z,100234.11
2022-11-18T15:26:45.795Z,100242.83
2022-11-18T15:29:52.055Z,100244.05
2022-11-18T15:32:58.218Z,100238.91
2022-11-18T15:36:04.742Z,100234.37
2022-11-18T15:39:11.706Z,100230.08
2022-11-18T15:42:23.170Z,100240.28
2022-11-18T15:45:29.658Z,100249.48
2022-11-18T15:48:34.823Z,100246.92
2022-11-18T15:51:42.096Z,100244.09
2022-11-18T15:54:47.379Z,100254.26
2022-11-18T15:57:53.657Z,100262.69
2022-11-18T16:01:02.211Z,100249.55
2022-11-18T16:04:07.205Z,100246.38
2022-11-18T16:07:13.001Z,100239.01
2022-11-18T16:10:36.440Z,100238.16
2022-11-18T16:13:43.369Z,100235.62
2022-11-18T16:16:50.227Z,100242.97
2022-11-18T16:19:56.706Z,100242.11
2022-11-18T16:23:02.708Z,100244.70
2022-11-18T16:26:08.607Z,100257.67
2022-11-18T16:29:14.531Z,100262.95
2022-11-18T16:32:23.400Z,100246.28
2022-11-18T16:35:30.018Z,100251.67
2022-11-18T16:38:38.198Z,100267.49
2022-11-18T16:41:44.676Z,100283.28
2022-11-18T16:44:51.654Z,100293.47
2022-11-18T16:47:59.910Z,100300.70
2022-11-18T16:51:18.762Z,100311.48
2022-11-18T16:54:29.968Z,100308.88
2022-11-18T16:57:37.946Z,100311.69
2022-11-18T17:01:16.611Z,100300.44
2022-11-18T17:03:50.242Z,100300.79
2022-11-18T17:06:56.408Z,100298.12
2022-11-18T17:10:03.759Z,100302.16
2022-11-18T17:13:09.084Z,100291.39
2022-11-18T17:16:23.037Z,100275.47
2022-11-18T17:19:31.541Z,100277.55
2022-11-18T17:22:39.465Z,100278.92
2022-11-18T17:25:46.758Z,100287.00
2022-11-18T17:28:53.643Z,100292.39
2022-11-18T17:32:02.586Z,100291.52
2022-11-18T17:35:10.144Z,100293.48
2022-11-18T17:38:18.331Z,100293.72
2022-11-18T17:41:44.978Z,100291.75
2022-11-18T17:44:50.726Z,100292.98
2022-11-18T17:48:00.419Z,100283.69
2022-11-18T17:51:06.697Z,100289.94
2022-11-18T17:54:13.579Z,100284.05
2022-11-18T17:57:19.480Z,100303.70
2022-11-18T18:00:27.262Z,100306.27
2022-11-18T18:03:34.239Z,100294.59
2022-11-18T18:06:40.920Z,100296.70
2022-11-18T18:09:46.712Z,100290.94
2022-11-18T18:13:11.527Z,100299.03
2022-11-18T18:16:18.454Z,100308.73
2022-11-18T18:19:25.473Z,100317.92
2022-11-18T18:22:31.168Z,100313.36
2022-11-18T18:25:36.148Z,100327.61
2022-11-18T18:28:42.001Z,100336.30
2022-11-18T18:31:51.394Z,100326.50
2022-11-18T18:34:58.137Z,100309.94
2022-11-18T18:38:05.140Z,100298.05
2022-11-18T18:41:18.431Z,100292.14
2022-11-18T18:44:25.332Z,100291.65
2022-11-18T18:47:31.208Z,100296.20
2022-11-18T18:50:37.984Z,100300.12
2022-11-18T18:53:44.330Z,100299.27
2022-11-18T18:56:48.890Z,100296.44
2022-11-18T18:59:55.196Z,100301.22
2022-11-18T19:03:01.961Z,100299.88
2022-11-18T19:09:18.493Z,100305.90
2022-11-18T19:12:43.899Z,100306.38
2022-11-18T19:15:50.832Z,100316.43
2022-11-18T19:18:59.093Z,100331.39
2022-11-18T19:22:05.784Z,100342.06
2022-11-18T19:25:12.858Z,100341.83
2022-11-18T19:28:19.609Z,100346.98
2022-11-18T19:31:30.206Z,100340.72
2022-11-18T19:34:36.705Z,100348.58
2022-11-18T19:37:41.847Z,100353.11
2022-11-18T19:40:47.713Z,100356.67
2022-11-18T19:43:54.663Z,100356.30
2022-11-18T19:47:01.704Z,100350.16
2022-11-18T19:50:08.645Z,100353.95
2022-11-18T19:53:16.226Z,100346.73
2022-11-18T19:56:28.379Z,100351.50
2022-11-18T19:59:32.976Z,100344.98
2022-11-18T20:02:37.923Z,100360.30
2022-11-18T20:06:01.192Z,100359.70
2022-11-18T20:09:06.832Z,100360.78
2022-11-18T20:12:14.705Z,100373.91
2022-11-18T20:15:21.634Z,100378.47
2022-11-18T20:18:30.497Z,100384.94
2022-11-18T20:21:39.899Z,100382.72
2022-11-18T20:24:47.095Z,100375.98
2022-11-18T20:27:52.145Z,100374.88
2022-11-18T20:31:02.450Z,100370.86
2022-11-18T20:34:09.826Z,100376.48
2022-11-18T20:37:18.846Z,100374.03
2022-11-18T20:40:26.547Z,100372.56
2022-11-18T20:43:34.880Z,100368.16
2022-11-18T20:46:42.868Z,100378.85
2022-11-18T20:49:49.939Z,100371.59
2022-11-18T20:52:55.309Z,100364.61
2022-11-18T20:56:04.125Z,100359.48
2022-11-18T20:59:11.912Z,100365.63
2022-11-18T21:02:18.462Z,100373.70
2022-11-18T21:05:26.455Z,100362.02
2022-11-18T21:08:34.789Z,100368.28
2022-11-18T21:11:41.720Z,100364.47
2022-11-18T21:14:49.182Z,100362.41
2022-11-18T21:17:55.405Z,100357.75
2022-11-18T21:21:20.018Z,100351.00
2022-11-18T21:24:30.211Z,100332.38
2022-11-18T21:27:36.192Z,100331.89
2022-11-18T21:30:43.277Z,100333.86
2022-11-18T21:33:50.321Z,100343.30
2022-11-18T21:36:57.995Z,100345.39
2022-11-18T21:40:06.508Z,100351.05
2022-11-18T21:43:13.439Z,100339.88
2022-11-18T21:46:25.172Z,100341.22
2022-11-18T21:49:31.827Z,100329.19
2022-11-18T21:52:38.242Z,100336.17
2022-11-18T21:55:43.528Z,100326.86
2022-11-18T21:58:50.308Z,100321.33
2022-11-18T22:01:57.003Z,100331.28
2022-11-18T22:05:04.439Z,100349.77
2022-11-18T22:08:10.485Z,100339.61
2022-11-18T22:11:19.040Z,100328.56
2022-11-18T22:14:26.424Z,100312.77
2022-11-18T22:17:35.575Z,100309.70
2022-11-18T22:20:43.306Z,100296.95
2022-11-18T22:23:49.216Z,100297.30
2022-11-18T22:26:54.607Z,100292.78
2022-11-18T22:30:00.179Z,100277.08
2022-11-18T22:33:06.567Z,100271.91
2022-11-18T22:36:19.978Z,100272.78
2022-11-18T22:39:27.441Z,100254.52
2022-11-18T22:42:51.309Z,100265.05
2022-11-18T22:45:56.952Z,100267.02
2022-11-18T22:49:04.547Z,100258.06
2022-11-18T22:52:12.929Z,100245.56
2022-11-18T22:55:20.177Z,100238.94
2022-11-18T22:58:26.464Z,100222.36
2022-11-18T23:01:34.680Z,100215.02
2022-11-18T23:04:41.747Z,100216.85
2022-11-18T23:07:47.129Z,100212.94
2022-11-18T23:10:53.100Z,100220.65
2022-11-18T23:14:05.267Z,100227.03
2022-11-18T23:17:11.582Z,100218.58
2022-11-18T23:20:20.317Z,100227.05
2022-11-18T23:23:26.562Z,100242.00
2022-11-18T23:26:32.607Z,100235.64
2022-11-18T23:29:39.130Z,100223.98
2022-11-18T23:32:46.567Z,100229.14
2022-11-18T23:35:53.400Z,100210.87
2022-11-18T23:39:01.695Z,100204.87
2022-11-18T23:42:09.570Z,100204.97
2022-11-18T23:45:16.692Z,100202.41
2022-11-18T23:48:22.087Z,100213.41
2022-11-18T23:51:33.362Z,100216.01
2022-11-18T23:54:40.892Z,100197.48
2022-11-18T23:57:46.291Z,100167.33
